sensor_id;sensor_type;location;lat;lon;timestamp;P1;durP1;ratioP1;P2;durP2;ratioP2
77880;SDS011;67077;50.298;18.996;2023-07-02T00:02:17;21.20;;;13.60;;
77880;SDS011;67077;50.298;18.996;2023-07-02T00:04:45;20.40;;;13.40;;
77880;SDS011;67077;50.298;18.996;2023-07-02T00:07:12;18.00;;;12.60;;
77880;SDS011;67077;50.298;18.996;2023-07-02T00:09:39;19.70;;;13.70;;
77880;SDS011;67077;50.298;18.996;2023-07-02T00:12:05;19.70;;;13.70;;
77880;SDS011;67077;50.298;18.996;2023-07-02T00:14:33;18.70;;;14.00;;
77880;SDS011;67077;50.298;18.996;2023-07-02T00:17:00;18.50;;;13.30;;
77880;SDS011;67077;50.298;18.996;2023-07-02T00:19:26;20.90;;;12.90;;
77880;SDS011;67077;50.298;18.996;2023-07-02T00:21:53;19.40;;;12.90;;
77880;SDS011;67077;50.298;18.996;2023-07-02T00:24:20;18.20;;;13.10;;
77880;SDS011;67077;50.298;18.996;2023-07-02T00:26:50;22.30;;;13.40;;
77880;SDS011;67077;50.298;18.996;2023-07-02T00:29:16;20.20;;;13.90;;
77880;SDS011;67077;50.298;18.996;2023-07-02T00:31:43;19.80;;;13.40;;
77880;SDS011;67077;50.298;18.996;2023-07-02T00:34:19;21.30;;;12.80;;
77880;SDS011;67077;50.298;18.996;2023-07-02T00:36:45;17.80;;;12.40;;
77880;SDS011;67077;50.298;18.996;2023-07-02T00:39:18;20.10;;;13.10;;
77880;SDS011;67077;50.298;18.996;2023-07-02T00:41:45;19.60;;;12.70;;
77880;SDS011;67077;50.298;18.996;2023-07-02T00:44:15;19.00;;;13.30;;
77880;SDS011;67077;50.298;18.996;2023-07-02T00:46:42;17.40;;;12.70;;
77880;SDS011;67077;50.298;18.996;2023-07-02T00:49:08;23.30;;;13.10;;
77880;SDS011;67077;50.298;18.996;2023-07-02T00:51:36;17.90;;;12.10;;
77880;SDS011;67077;50.298;18.996;2023-07-02T00:54:03;19.10;;;12.20;;
77880;SDS011;67077;50.298;18.996;2023-07-02T00:56:30;17.10;;;11.70;;
77880;SDS011;67077;50.298;18.996;2023-07-02T00:58:57;17.60;;;12.10;;
77880;SDS011;67077;50.298;18.996;2023-07-02T01:01:25;17.40;;;12.00;;
77880;SDS011;67077;50.298;18.996;2023-07-02T01:04:02;18.30;;;11.70;;
77880;SDS011;67077;50.298;18.996;2023-07-02T01:06:35;17.90;;;11.90;;
77880;SDS011;67077;50.298;18.996;2023-07-02T01:09:07;16.90;;;11.30;;
77880;SDS011;67077;50.298;18.996;2023-07-02T01:11:40;18.20;;;11.20;;
77880;SDS011;67077;50.298;18.996;2023-07-02T01:14:36;17.30;;;11.10;;
77880;SDS011;67077;50.298;18.996;2023-07-02T01:17:05;18.00;;;11.80;;
77880;SDS011;67077;50.298;18.996;2023-07-02T01:22:07;18.60;;;11.60;;
77880;SDS011;67077;50.298;18.996;2023-07-02T01:24:43;18.80;;;11.60;;
77880;SDS011;67077;50.298;18.996;2023-07-02T01:27:13;20.30;;;12.00;;
77880;SDS011;67077;50.298;18.996;2023-07-02T01:29:41;17.70;;;11.70;;
77880;SDS011;67077;50.298;18.996;2023-07-02T01:32:11;18.10;;;12.30;;
77880;SDS011;67077;50.298;18.996;2023-07-02T01:34:38;17.90;;;12.40;;
77880;SDS011;67077;50.298;18.996;2023-07-02T01:37:06;19.10;;;11.80;;
77880;SDS011;67077;50.298;18.996;2023-07-02T01:39:37;21.20;;;12.10;;
77880;SDS011;67077;50.298;18.996;2023-07-02T01:42:07;19.20;;;12.50;;
77880;SDS011;67077;50.298;18.996;2023-07-02T01:44:35;21.50;;;13.50;;
77880;SDS011;67077;50.298;18.996;2023-07-02T01:47:04;20.60;;;14.50;;
77880;SDS011;67077;50.298;18.996;2023-07-02T01:49:31;20.00;;;13.80;;
77880;SDS011;67077;50.298;18.996;2023-07-02T01:51:58;21.60;;;13.50;;
77880;SDS011;67077;50.298;18.996;2023-07-02T01:54:26;22.20;;;13.00;;
77880;SDS011;67077;50.298;18.996;2023-07-02T01:56:53;22.20;;;14.10;;
77880;SDS011;67077;50.298;18.996;2023-07-02T01:59:24;21.30;;;14.10;;
77880;SDS011;67077;50.298;18.996;2023-07-02T02:01:51;21.80;;;14.70;;
77880;SDS011;67077;50.298;18.996;2023-07-02T02:04:18;23.80;;;15.40;;
77880;SDS011;67077;50.298;18.996;2023-07-02T02:06:45;24.20;;;14.80;;
77880;SDS011;67077;50.298;18.996;2023-07-02T02:09:12;27.30;;;15.70;;
77880;SDS011;67077;50.298;18.996;2023-07-02T02:11:40;22.10;;;14.60;;
77880;SDS011;67077;50.298;18.996;2023-07-02T02:14:09;25.90;;;15.30;;
77880;SDS011;67077;50.298;18.996;2023-07-02T02:16:36;24.40;;;16.30;;
77880;SDS011;67077;50.298;18.996;2023-07-02T02:19:05;23.60;;;16.20;;
77880;SDS011;67077;50.298;18.996;2023-07-02T02:21:32;23.60;;;15.50;;
77880;SDS011;67077;50.298;18.996;2023-07-02T02:24:00;21.80;;;15.80;;
77880;SDS011;67077;50.298;18.996;2023-07-02T02:26:27;26.80;;;15.50;;
77880;SDS011;67077;50.298;18.996;2023-07-02T02:28:54;23.90;;;16.00;;
77880;SDS011;67077;50.298;18.996;2023-07-02T02:31:20;22.20;;;15.30;;
77880;SDS011;67077;50.298;18.996;2023-07-02T02:33:47;24.60;;;15.80;;
77880;SDS011;67077;50.298;18.996;2023-07-02T02:36:14;22.30;;;14.50;;
77880;SDS011;67077;50.298;18.996;2023-07-02T02:38:42;20.50;;;14.30;;
77880;SDS011;67077;50.298;18.996;2023-07-02T02:41:09;21.40;;;14.00;;
77880;SDS011;67077;50.298;18.996;2023-07-02T02:43:42;24.80;;;15.80;;
77880;SDS011;67077;50.298;18.996;2023-07-02T02:46:10;21.70;;;14.20;;
77880;SDS011;67077;50.298;18.996;2023-07-02T02:48:39;24.40;;;14.20;;
77880;SDS011;67077;50.298;18.996;2023-07-02T02:51:07;19.50;;;14.40;;
77880;SDS011;67077;50.298;18.996;2023-07-02T02:53:33;21.10;;;12.80;;
77880;SDS011;67077;50.298;18.996;2023-07-02T02:56:00;21.00;;;14.20;;
77880;SDS011;67077;50.298;18.996;2023-07-02T02:58:27;16.90;;;12.70;;
77880;SDS011;67077;50.298;18.996;2023-07-02T03:00:54;20.00;;;13.60;;
77880;SDS011;67077;50.298;18.996;2023-07-02T03:03:21;20.20;;;13.10;;
77880;SDS011;67077;50.298;18.996;2023-07-02T03:05:50;19.10;;;12.70;;
77880;SDS011;67077;50.298;18.996;2023-07-02T03:08:17;19.50;;;12.30;;
77880;SDS011;67077;50.298;18.996;2023-07-02T03:10:44;21.60;;;13.40;;
77880;SDS011;67077;50.298;18.996;2023-07-02T03:13:11;21.60;;;12.60;;
77880;SDS011;67077;50.298;18.996;2023-07-02T03:15:37;19.20;;;12.60;;
77880;SDS011;67077;50.298;18.996;2023-07-02T03:18:04;17.80;;;12.40;;
77880;SDS011;67077;50.298;18.996;2023-07-02T03:20:31;19.10;;;12.20;;
77880;SDS011;67077;50.298;18.996;2023-07-02T03:22:58;19.00;;;12.40;;
77880;SDS011;67077;50.298;18.996;2023-07-02T03:25:25;16.90;;;12.10;;
77880;SDS011;67077;50.298;18.996;2023-07-02T03:27:52;18.90;;;11.50;;
77880;SDS011;67077;50.298;18.996;2023-07-02T03:30:18;16.60;;;11.30;;
77880;SDS011;67077;50.298;18.996;2023-07-02T03:32:45;16.50;;;11.50;;
77880;SDS011;67077;50.298;18.996;2023-07-02T03:35:11;16.60;;;11.40;;
77880;SDS011;67077;50.298;18.996;2023-07-02T03:37:38;15.10;;;11.20;;
77880;SDS011;67077;50.298;18.996;2023-07-02T03:40:08;16.70;;;11.50;;
77880;SDS011;67077;50.298;18.996;2023-07-02T03:42:35;17.60;;;11.50;;
77880;SDS011;67077;50.298;18.996;2023-07-02T03:45:02;18.00;;;11.50;;
77880;SDS011;67077;50.298;18.996;2023-07-02T03:47:30;16.30;;;10.80;;
77880;SDS011;67077;50.298;18.996;2023-07-02T03:49:57;16.60;;;10.00;;
77880;SDS011;67077;50.298;18.996;2023-07-02T03:52:24;19.80;;;9.90;;
77880;SDS011;67077;50.298;18.996;2023-07-02T03:54:51;16.10;;;10.40;;
77880;SDS011;67077;50.298;18.996;2023-07-02T03:57:17;15.20;;;9.80;;
77880;SDS011;67077;50.298;18.996;2023-07-02T03:59:44;16.30;;;9.90;;
77880;SDS011;67077;50.298;18.996;2023-07-02T04:02:11;14.70;;;9.80;;
77880;SDS011;67077;50.298;18.996;2023-07-02T04:04:37;13.70;;;9.50;;
77880;SDS011;67077;50.298;18.996;2023-07-02T04:07:04;14.50;;;10.00;;
77880;SDS011;67077;50.298;18.996;2023-07-02T04:09:31;15.40;;;9.40;;
77880;SDS011;67077;50.298;18.996;2023-07-02T04:12:00;12.90;;;9.50;;
77880;SDS011;67077;50.298;18.996;2023-07-02T04:14:27;14.70;;;8.90;;
77880;SDS011;67077;50.298;18.996;2023-07-02T04:16:54;15.80;;;8.80;;
77880;SDS011;67077;50.298;18.996;2023-07-02T04:19:21;11.50;;;8.40;;
77880;SDS011;67077;50.298;18.996;2023-07-02T04:21:47;13.00;;;8.20;;
77880;SDS011;67077;50.298;18.996;2023-07-02T04:24:14;11.70;;;8.40;;
77880;SDS011;67077;50.298;18.996;2023-07-02T04:26:43;13.00;;;8.70;;
77880;SDS011;67077;50.298;18.996;2023-07-02T04:29:11;11.40;;;8.70;;
77880;SDS011;67077;50.298;18.996;2023-07-02T04:31:37;12.80;;;8.60;;
77880;SDS011;67077;50.298;18.996;2023-07-02T04:34:04;12.80;;;8.20;;
77880;SDS011;67077;50.298;18.996;2023-07-02T04:36:32;11.30;;;7.90;;
77880;SDS011;67077;50.298;18.996;2023-07-02T04:38:59;12.30;;;8.50;;
77880;SDS011;67077;50.298;18.996;2023-07-02T04:41:26;12.50;;;8.20;;
77880;SDS011;67077;50.298;18.996;2023-07-02T04:43:53;13.50;;;8.30;;
77880;SDS011;67077;50.298;18.996;2023-07-02T04:46:22;10.30;;;7.40;;
77880;SDS011;67077;50.298;18.996;2023-07-02T04:48:49;12.60;;;8.00;;
77880;SDS011;67077;50.298;18.996;2023-07-02T04:51:17;10.30;;;7.50;;
77880;SDS011;67077;50.298;18.996;2023-07-02T04:53:44;12.20;;;8.10;;
77880;SDS011;67077;50.298;18.996;2023-07-02T04:56:11;12.30;;;8.20;;
77880;SDS011;67077;50.298;18.996;2023-07-02T04:58:37;14.30;;;8.30;;
77880;SDS011;67077;50.298;18.996;2023-07-02T05:01:04;11.90;;;8.10;;
77880;SDS011;67077;50.298;18.996;2023-07-02T05:03:31;13.20;;;8.20;;
77880;SDS011;67077;50.298;18.996;2023-07-02T05:05:58;14.00;;;8.70;;
77880;SDS011;67077;50.298;18.996;2023-07-02T05:08:25;12.00;;;8.10;;
77880;SDS011;67077;50.298;18.996;2023-07-02T05:10:51;15.70;;;8.10;;
77880;SDS011;67077;50.298;18.996;2023-07-02T05:13:18;11.90;;;8.40;;
77880;SDS011;67077;50.298;18.996;2023-07-02T05:15:45;12.20;;;8.40;;
77880;SDS011;67077;50.298;18.996;2023-07-02T05:18:12;15.80;;;8.60;;
77880;SDS011;67077;50.298;18.996;2023-07-02T05:20:39;11.90;;;8.10;;
77880;SDS011;67077;50.298;18.996;2023-07-02T05:23:06;14.80;;;8.40;;
77880;SDS011;67077;50.298;18.996;2023-07-02T05:25:32;12.20;;;8.20;;
77880;SDS011;67077;50.298;18.996;2023-07-02T05:28:00;12.80;;;8.80;;
77880;SDS011;67077;50.298;18.996;2023-07-02T05:30:26;11.90;;;8.70;;
77880;SDS011;67077;50.298;18.996;2023-07-02T05:32:53;15.70;;;8.50;;
77880;SDS011;67077;50.298;18.996;2023-07-02T05:35:20;13.90;;;9.40;;
77880;SDS011;67077;50.298;18.996;2023-07-02T05:37:46;15.90;;;8.40;;
77880;SDS011;67077;50.298;18.996;2023-07-02T05:40:13;15.20;;;8.70;;
77880;SDS011;67077;50.298;18.996;2023-07-02T05:42:40;13.40;;;7.50;;
77880;SDS011;67077;50.298;18.996;2023-07-02T05:45:09;13.00;;;8.30;;
77880;SDS011;67077;50.298;18.996;2023-07-02T05:47:38;16.50;;;11.00;;
77880;SDS011;67077;50.298;18.996;2023-07-02T05:50:07;16.40;;;8.60;;
77880;SDS011;67077;50.298;18.996;2023-07-02T05:52:34;13.90;;;7.60;;
77880;SDS011;67077;50.298;18.996;2023-07-02T05:55:01;13.80;;;8.00;;
77880;SDS011;67077;50.298;18.996;2023-07-02T05:57:28;13.00;;;8.00;;
77880;SDS011;67077;50.298;18.996;2023-07-02T05:59:55;12.80;;;7.70;;
77880;SDS011;67077;50.298;18.996;2023-07-02T06:02:21;11.20;;;7.00;;
77880;SDS011;67077;50.298;18.996;2023-07-02T06:04:48;12.70;;;6.50;;
77880;SDS011;67077;50.298;18.996;2023-07-02T06:07:15;9.80;;;6.40;;
77880;SDS011;67077;50.298;18.996;2023-07-02T06:09:42;8.40;;;5.70;;
77880;SDS011;67077;50.298;18.996;2023-07-02T06:12:09;7.80;;;4.70;;
77880;SDS011;67077;50.298;18.996;2023-07-02T06:14:36;9.00;;;5.90;;
77880;SDS011;67077;50.298;18.996;2023-07-02T06:17:02;11.90;;;6.00;;
77880;SDS011;67077;50.298;18.996;2023-07-02T06:19:34;7.60;;;4.40;;
77880;SDS011;67077;50.298;18.996;2023-07-02T06:22:01;8.10;;;5.40;;
77880;SDS011;67077;50.298;18.996;2023-07-02T06:24:28;7.50;;;4.90;;
77880;SDS011;67077;50.298;18.996;2023-07-02T06:26:55;11.40;;;5.50;;
77880;SDS011;67077;50.298;18.996;2023-07-02T06:29:22;7.90;;;5.30;;
77880;SDS011;67077;50.298;18.996;2023-07-02T06:31:51;7.40;;;5.40;;
77880;SDS011;67077;50.298;18.996;2023-07-02T06:34:18;10.80;;;5.80;;
77880;SDS011;67077;50.298;18.996;2023-07-02T06:36:47;11.10;;;5.80;;
77880;SDS011;67077;50.298;18.996;2023-07-02T06:39:14;8.20;;;5.50;;
77880;SDS011;67077;50.298;18.996;2023-07-02T06:41:42;7.40;;;5.30;;
77880;SDS011;67077;50.298;18.996;2023-07-02T06:44:09;12.50;;;5.70;;
77880;SDS011;67077;50.298;18.996;2023-07-02T06:46:35;8.20;;;5.40;;
77880;SDS011;67077;50.298;18.996;2023-07-02T06:49:02;9.20;;;5.00;;
77880;SDS011;67077;50.298;18.996;2023-07-02T06:51:29;8.80;;;5.60;;
77880;SDS011;67077;50.298;18.996;2023-07-02T06:53:56;6.00;;;4.70;;
77880;SDS011;67077;50.298;18.996;2023-07-02T06:56:23;6.90;;;4.10;;
77880;SDS011;67077;50.298;18.996;2023-07-02T06:58:50;7.60;;;4.60;;
77880;SDS011;67077;50.298;18.996;2023-07-02T07:01:18;8.00;;;4.60;;
77880;SDS011;67077;50.298;18.996;2023-07-02T07:03:45;9.60;;;4.70;;
77880;SDS011;67077;50.298;18.996;2023-07-02T07:06:12;7.40;;;4.50;;
77880;SDS011;67077;50.298;18.996;2023-07-02T07:08:39;7.10;;;4.80;;
77880;SDS011;67077;50.298;18.996;2023-07-02T07:11:06;6.00;;;3.80;;
77880;SDS011;67077;50.298;18.996;2023-07-02T07:13:33;7.90;;;3.90;;
77880;SDS011;67077;50.298;18.996;2023-07-02T07:16:00;8.20;;;4.20;;
77880;SDS011;67077;50.298;18.996;2023-07-02T07:18:27;6.30;;;4.20;;
77880;SDS011;67077;50.298;18.996;2023-07-02T07:20:54;6.20;;;4.10;;
77880;SDS011;67077;50.298;18.996;2023-07-02T07:23:22;5.40;;;3.90;;
77880;SDS011;67077;50.298;18.996;2023-07-02T07:25:49;5.30;;;3.60;;
77880;SDS011;67077;50.298;18.996;2023-07-02T07:28:15;5.90;;;3.50;;
77880;SDS011;67077;50.298;18.996;2023-07-02T07:30:43;5.60;;;3.70;;
77880;SDS011;67077;50.298;18.996;2023-07-02T07:33:11;7.00;;;4.10;;
77880;SDS011;67077;50.298;18.996;2023-07-02T07:35:38;6.10;;;3.90;;
77880;SDS011;67077;50.298;18.996;2023-07-02T07:38:04;5.20;;;3.80;;
77880;SDS011;67077;50.298;18.996;2023-07-02T07:40:31;7.60;;;3.80;;
77880;SDS011;67077;50.298;18.996;2023-07-02T07:42:57;5.20;;;3.70;;
77880;SDS011;67077;50.298;18.996;2023-07-02T07:45:24;7.60;;;3.70;;
77880;SDS011;67077;50.298;18.996;2023-07-02T07:47:50;5.10;;;3.70;;
77880;SDS011;67077;50.298;18.996;2023-07-02T07:50:17;8.50;;;3.80;;
77880;SDS011;67077;50.298;18.996;2023-07-02T07:52:44;7.20;;;4.00;;
77880;SDS011;67077;50.298;18.996;2023-07-02T07:55:10;7.00;;;3.70;;
77880;SDS011;67077;50.298;18.996;2023-07-02T07:57:37;5.50;;;3.50;;
77880;SDS011;67077;50.298;18.996;2023-07-02T08:00:06;5.00;;;3.70;;
77880;SDS011;67077;50.298;18.996;2023-07-02T08:02:39;8.50;;;3.70;;
77880;SDS011;67077;50.298;18.996;2023-07-02T08:05:06;5.80;;;3.60;;
77880;SDS011;67077;50.298;18.996;2023-07-02T08:07:35;6.20;;;3.50;;
77880;SDS011;67077;50.298;18.996;2023-07-02T08:10:02;5.20;;;3.50;;
77880;SDS011;67077;50.298;18.996;2023-07-02T08:12:30;7.60;;;4.10;;
77880;SDS011;67077;50.298;18.996;2023-07-02T08:14:56;5.50;;;3.80;;
77880;SDS011;67077;50.298;18.996;2023-07-02T08:17:23;4.80;;;3.90;;
77880;SDS011;67077;50.298;18.996;2023-07-02T08:19:51;9.30;;;4.60;;
77880;SDS011;67077;50.298;18.996;2023-07-02T08:22:21;5.10;;;4.10;;
77880;SDS011;67077;50.298;18.996;2023-07-02T08:24:47;7.40;;;4.40;;
77880;SDS011;67077;50.298;18.996;2023-07-02T08:27:17;9.00;;;5.40;;
77880;SDS011;67077;50.298;18.996;2023-07-02T08:29:46;8.80;;;5.90;;
77880;SDS011;67077;50.298;18.996;2023-07-02T08:32:14;7.40;;;4.90;;
77880;SDS011;67077;50.298;18.996;2023-07-02T08:34:41;6.30;;;4.80;;
77880;SDS011;67077;50.298;18.996;2023-07-02T08:37:08;6.40;;;4.80;;
77880;SDS011;67077;50.298;18.996;2023-07-02T08:39:36;6.50;;;4.90;;
77880;SDS011;67077;50.298;18.996;2023-07-02T08:42:06;7.00;;;4.70;;
77880;SDS011;67077;50.298;18.996;2023-07-02T08:44:34;6.10;;;4.40;;
77880;SDS011;67077;50.298;18.996;2023-07-02T08:47:02;5.70;;;3.90;;
77880;SDS011;67077;50.298;18.996;2023-07-02T08:49:29;6.40;;;4.30;;
77880;SDS011;67077;50.298;18.996;2023-07-02T08:51:57;6.70;;;4.40;;
77880;SDS011;67077;50.298;18.996;2023-07-02T08:54:25;5.60;;;4.50;;
77880;SDS011;67077;50.298;18.996;2023-07-02T08:56:52;8.80;;;4.70;;
77880;SDS011;67077;50.298;18.996;2023-07-02T08:59:19;5.70;;;4.20;;
77880;SDS011;67077;50.298;18.996;2023-07-02T09:01:50;7.60;;;4.00;;
77880;SDS011;67077;50.298;18.996;2023-07-02T09:04:21;5.60;;;4.20;;
77880;SDS011;67077;50.298;18.996;2023-07-02T09:06:51;6.00;;;4.20;;
77880;SDS011;67077;50.298;18.996;2023-07-02T09:09:33;8.70;;;4.60;;
77880;SDS011;67077;50.298;18.996;2023-07-02T09:14:53;7.20;;;4.40;;
77880;SDS011;67077;50.298;18.996;2023-07-02T09:17:27;6.50;;;4.50;;
77880;SDS011;67077;50.298;18.996;2023-07-02T09:19:59;5.70;;;4.40;;
77880;SDS011;67077;50.298;18.996;2023-07-02T09:22:27;10.00;;;4.90;;
77880;SDS011;67077;50.298;18.996;2023-07-02T09:24:55;7.90;;;4.60;;
77880;SDS011;67077;50.298;18.996;2023-07-02T09:27:33;6.00;;;4.70;;
77880;SDS011;67077;50.298;18.996;2023-07-02T09:30:06;8.40;;;4.90;;
77880;SDS011;67077;50.298;18.996;2023-07-02T09:32:34;7.70;;;5.10;;
77880;SDS011;67077;50.298;18.996;2023-07-02T09:35:02;7.70;;;4.90;;
77880;SDS011;67077;50.298;18.996;2023-07-02T09:37:31;8.00;;;4.90;;
77880;SDS011;67077;50.298;18.996;2023-07-02T09:39:58;7.90;;;5.10;;
77880;SDS011;67077;50.298;18.996;2023-07-02T09:42:25;9.10;;;5.30;;
77880;SDS011;67077;50.298;18.996;2023-07-02T09:44:56;8.60;;;5.20;;
77880;SDS011;67077;50.298;18.996;2023-07-02T09:47:26;7.90;;;4.90;;
77880;SDS011;67077;50.298;18.996;2023-07-02T09:49:59;8.20;;;5.70;;
77880;SDS011;67077;50.298;18.996;2023-07-02T09:52:35;9.60;;;6.10;;
77880;SDS011;67077;50.298;18.996;2023-07-02T09:55:03;7.20;;;5.50;;
77880;SDS011;67077;50.298;18.996;2023-07-02T09:57:31;8.10;;;5.70;;
77880;SDS011;67077;50.298;18.996;2023-07-02T09:59:59;9.40;;;5.70;;
77880;SDS011;67077;50.298;18.996;2023-07-02T10:02:28;7.90;;;5.10;;
77880;SDS011;67077;50.298;18.996;2023-07-02T10:04:55;8.60;;;5.50;;
77880;SDS011;67077;50.298;18.996;2023-07-02T10:07:27;6.10;;;5.10;;
77880;SDS011;67077;50.298;18.996;2023-07-02T10:09:56;7.70;;;5.40;;
77880;SDS011;67077;50.298;18.996;2023-07-02T10:12:24;7.30;;;5.20;;
77880;SDS011;67077;50.298;18.996;2023-07-02T10:14:54;7.90;;;5.10;;
77880;SDS011;67077;50.298;18.996;2023-07-02T10:17:29;8.40;;;5.40;;
77880;SDS011;67077;50.298;18.996;2023-07-02T10:22:45;7.40;;;5.50;;
77880;SDS011;67077;50.298;18.996;2023-07-02T10:27:54;7.40;;;5.20;;
77880;SDS011;67077;50.298;18.996;2023-07-02T10:30:34;7.50;;;5.30;;
77880;SDS011;67077;50.298;18.996;2023-07-02T10:33:06;6.60;;;5.60;;
77880;SDS011;67077;50.298;18.996;2023-07-02T10:35:35;6.40;;;5.00;;
77880;SDS011;67077;50.298;18.996;2023-07-02T10:38:03;7.30;;;4.50;;
77880;SDS011;67077;50.298;18.996;2023-07-02T10:40:32;5.70;;;4.50;;
77880;SDS011;67077;50.298;18.996;2023-07-02T10:42:59;9.40;;;5.50;;
77880;SDS011;67077;50.298;18.996;2023-07-02T10:45:30;6.90;;;4.70;;
77880;SDS011;67077;50.298;18.996;2023-07-02T10:48:01;4.80;;;4.00;;
77880;SDS011;67077;50.298;18.996;2023-07-02T10:50:30;6.20;;;4.00;;
77880;SDS011;67077;50.298;18.996;2023-07-02T10:53:00;6.50;;;4.00;;
77880;SDS011;67077;50.298;18.996;2023-07-02T10:55:33;7.60;;;3.90;;
77880;SDS011;67077;50.298;18.996;2023-07-02T10:58:07;5.40;;;3.80;;
77880;SDS011;67077;50.298;18.996;2023-07-02T11:00:44;6.80;;;3.60;;
77880;SDS011;67077;50.298;18.996;2023-07-02T11:03:16;4.60;;;3.20;;
77880;SDS011;67077;50.298;18.996;2023-07-02T11:05:43;4.70;;;3.40;;
77880;SDS011;67077;50.298;18.996;2023-07-02T11:08:10;5.70;;;3.50;;
77880;SDS011;67077;50.298;18.996;2023-07-02T11:10:37;4.60;;;3.40;;
77880;SDS011;67077;50.298;18.996;2023-07-02T11:13:14;5.50;;;3.50;;
77880;SDS011;67077;50.298;18.996;2023-07-02T11:15:46;5.40;;;3.60;;
77880;SDS011;67077;50.298;18.996;2023-07-02T11:18:14;6.80;;;3.60;;
77880;SDS011;67077;50.298;18.996;2023-07-02T11:20:43;6.70;;;3.30;;
77880;SDS011;67077;50.298;18.996;2023-07-02T11:23:21;5.80;;;3.20;;
77880;SDS011;67077;50.298;18.996;2023-07-02T11:25:58;6.30;;;3.30;;
77880;SDS011;67077;50.298;18.996;2023-07-02T11:28:26;5.60;;;3.40;;
77880;SDS011;67077;50.298;18.996;2023-07-02T11:30:55;4.00;;;3.10;;
77880;SDS011;67077;50.298;18.996;2023-07-02T11:33:38;6.40;;;3.50;;
77880;SDS011;67077;50.298;18.996;2023-07-02T11:36:07;3.90;;;3.40;;
77880;SDS011;67077;50.298;18.996;2023-07-02T11:38:48;3.80;;;3.40;;
77880;SDS011;67077;50.298;18.996;2023-07-02T11:41:17;4.50;;;3.50;;
77880;SDS011;67077;50.298;18.996;2023-07-02T11:43:44;6.30;;;3.80;;
77880;SDS011;67077;50.298;18.996;2023-07-02T11:46:11;5.30;;;3.50;;
77880;SDS011;67077;50.298;18.996;2023-07-02T11:48:38;5.00;;;3.60;;
77880;SDS011;67077;50.298;18.996;2023-07-02T11:51:07;4.30;;;3.40;;
77880;SDS011;67077;50.298;18.996;2023-07-02T11:53:34;3.60;;;3.10;;
77880;SDS011;67077;50.298;18.996;2023-07-02T11:56:03;3.30;;;2.90;;
77880;SDS011;67077;50.298;18.996;2023-07-02T11:58:29;4.00;;;3.00;;
77880;SDS011;67077;50.298;18.996;2023-07-02T12:00:57;5.30;;;3.20;;
77880;SDS011;67077;50.298;18.996;2023-07-02T12:03:24;4.10;;;3.00;;
77880;SDS011;67077;50.298;18.996;2023-07-02T12:05:50;3.90;;;3.00;;
77880;SDS011;67077;50.298;18.996;2023-07-02T12:08:17;3.40;;;2.90;;
77880;SDS011;67077;50.298;18.996;2023-07-02T12:10:44;4.40;;;2.70;;
77880;SDS011;67077;50.298;18.996;2023-07-02T12:13:11;5.70;;;1.70;;
77880;SDS011;67077;50.298;18.996;2023-07-02T12:15:38;1.70;;;0.70;;
77880;SDS011;67077;50.298;18.996;2023-07-02T12:18:05;1.50;;;0.80;;
77880;SDS011;67077;50.298;18.996;2023-07-02T12:20:32;1.70;;;0.80;;
77880;SDS011;67077;50.298;18.996;2023-07-02T12:22:58;2.90;;;0.90;;
77880;SDS011;67077;50.298;18.996;2023-07-02T12:25:25;1.20;;;0.90;;
77880;SDS011;67077;50.298;18.996;2023-07-02T12:27:52;5.10;;;1.00;;
77880;SDS011;67077;50.298;18.996;2023-07-02T12:30:20;1.10;;;1.00;;
77880;SDS011;67077;50.298;18.996;2023-07-02T12:32:47;3.70;;;1.00;;
77880;SDS011;67077;50.298;18.996;2023-07-02T12:35:14;1.70;;;0.80;;
77880;SDS011;67077;50.298;18.996;2023-07-02T12:37:47;3.40;;;1.30;;
77880;SDS011;67077;50.298;18.996;2023-07-02T12:40:17;1.80;;;1.30;;
77880;SDS011;67077;50.298;18.996;2023-07-02T12:42:46;5.20;;;1.50;;
77880;SDS011;67077;50.298;18.996;2023-07-02T12:45:13;2.20;;;1.70;;
77880;SDS011;67077;50.298;18.996;2023-07-02T12:47:41;4.40;;;1.70;;
77880;SDS011;67077;50.298;18.996;2023-07-02T12:50:10;3.40;;;1.70;;
77880;SDS011;67077;50.298;18.996;2023-07-02T12:52:37;5.00;;;1.70;;
77880;SDS011;67077;50.298;18.996;2023-07-02T12:55:05;1.50;;;1.40;;
77880;SDS011;67077;50.298;18.996;2023-07-02T12:57:32;2.40;;;1.60;;
77880;SDS011;67077;50.298;18.996;2023-07-02T13:00:00;2.70;;;1.80;;
77880;SDS011;67077;50.298;18.996;2023-07-02T13:02:34;4.90;;;1.90;;
77880;SDS011;67077;50.298;18.996;2023-07-02T13:05:07;3.20;;;1.90;;
77880;SDS011;67077;50.298;18.996;2023-07-02T13:08:24;3.40;;;1.60;;
77880;SDS011;67077;50.298;18.996;2023-07-02T13:15:40;6.40;;;1.90;;
77880;SDS011;67077;50.298;18.996;2023-07-02T13:27:16;3.00;;;2.00;;
77880;SDS011;67077;50.298;18.996;2023-07-02T13:30:46;3.30;;;1.90;;
77880;SDS011;67077;50.298;18.996;2023-07-02T13:33:44;4.20;;;2.30;;
77880;SDS011;67077;50.298;18.996;2023-07-02T13:36:35;4.70;;;3.20;;
77880;SDS011;67077;50.298;18.996;2023-07-02T13:39:10;3.30;;;2.80;;
77880;SDS011;67077;50.298;18.996;2023-07-02T13:41:40;6.20;;;4.00;;
77880;SDS011;67077;50.298;18.996;2023-07-02T13:44:07;7.60;;;4.30;;
77880;SDS011;67077;50.298;18.996;2023-07-02T13:46:34;5.30;;;3.20;;
77880;SDS011;67077;50.298;18.996;2023-07-02T13:49:01;4.80;;;3.30;;
77880;SDS011;67077;50.298;18.996;2023-07-02T13:51:28;6.90;;;3.90;;
77880;SDS011;67077;50.298;18.996;2023-07-02T13:53:56;8.70;;;5.90;;
77880;SDS011;67077;50.298;18.996;2023-07-02T13:56:22;9.20;;;6.40;;
77880;SDS011;67077;50.298;18.996;2023-07-02T14:01:24;4.90;;;3.80;;
77880;SDS011;67077;50.298;18.996;2023-07-02T14:03:51;7.00;;;3.70;;
77880;SDS011;67077;50.298;18.996;2023-07-02T14:06:22;5.20;;;3.30;;
77880;SDS011;67077;50.298;18.996;2023-07-02T14:08:49;8.30;;;3.00;;
77880;SDS011;67077;50.298;18.996;2023-07-02T14:11:16;9.80;;;4.20;;
77880;SDS011;67077;50.298;18.996;2023-07-02T14:13:44;8.50;;;4.50;;
77880;SDS011;67077;50.298;18.996;2023-07-02T14:16:10;8.20;;;3.90;;
77880;SDS011;67077;50.298;18.996;2023-07-02T14:18:37;5.90;;;3.20;;
77880;SDS011;67077;50.298;18.996;2023-07-02T14:21:04;5.50;;;3.50;;
77880;SDS011;67077;50.298;18.996;2023-07-02T14:23:31;3.90;;;2.90;;
77880;SDS011;67077;50.298;18.996;2023-07-02T14:25:57;6.00;;;2.80;;
77880;SDS011;67077;50.298;18.996;2023-07-02T14:28:25;3.10;;;2.70;;
77880;SDS011;67077;50.298;18.996;2023-07-02T14:30:56;3.80;;;2.60;;
77880;SDS011;67077;50.298;18.996;2023-07-02T14:33:24;6.80;;;3.40;;
77880;SDS011;67077;50.298;18.996;2023-07-02T14:35:52;3.30;;;2.50;;
77880;SDS011;67077;50.298;18.996;2023-07-02T14:38:19;4.10;;;2.90;;
77880;SDS011;67077;50.298;18.996;2023-07-02T14:40:49;3.50;;;2.50;;
77880;SDS011;67077;50.298;18.996;2023-07-02T14:43:17;4.60;;;2.50;;
77880;SDS011;67077;50.298;18.996;2023-07-02T14:45:46;2.80;;;2.40;;
77880;SDS011;67077;50.298;18.996;2023-07-02T14:48:15;4.40;;;2.60;;
77880;SDS011;67077;50.298;18.996;2023-07-02T14:53:11;5.70;;;2.80;;
77880;SDS011;67077;50.298;18.996;2023-07-02T14:55:38;8.40;;;3.80;;
77880;SDS011;67077;50.298;18.996;2023-07-02T14:58:05;8.10;;;3.40;;
77880;SDS011;67077;50.298;18.996;2023-07-02T15:00:32;3.40;;;2.70;;
77880;SDS011;67077;50.298;18.996;2023-07-02T15:03:01;2.50;;;2.00;;
77880;SDS011;67077;50.298;18.996;2023-07-02T15:05:28;3.50;;;2.30;;